Kezdőlap
METAR-TAF:

METAR-TAF

Repülőterek :

Malindi, Kenya

földrajzi szélesség: 03-14S, földrajzi hosszúság: 040-06E, magasság: 20 m

Jelenlegi meteorológiai megfigyelések

A jelentés 6 órával és 30 perccel ezelõtt készült, 19:00 UTC
Keleti szél 5 kt
Hőmérséklet 30°C
Páratartalom 75%
Légköri nyomás 1009 hPa
Látótávolság 10 km, vagy több
Kevés felhő 2000 lábon
Szórványos felhőzet 26000 lábon

METAR: HKML 281900Z 09005KT 9999 FEW020 SCT260 30/25 Q1009

Idő: 04:30 (01:30 UTC)

Előrejelzés

A jelentés 2 órával és 30 perccel ezelõtt készült, 23:00 UTC
Az előrejelzés 29-én 00 óra UTC és 29-én 24 óra UTC között érvényes
Északi szél kt
Látótávolság 10 km, vagy több
Szórványos felhőzet 2000 lábon
29-én 09 óra UTC és 29-én 12 óra UTC között fokozatosan kialakuló
Dél-délkeleti szél 10 kt
Kevés felhő 2300 lábon

TAF: HKML 282300Z 2900/2924 00000KT 9999 SCT020 BECMG 2909/2912 15010KT FEW023

Meteorológiai megfigyelések és előrejelzések több, mint 4000 repülőtéren (METAR és TAF jelentéseket).

A térképen piros és sárga pontok jelzik az elérhető meteorológiai állomásokat.

Mozgassa az egeret a pont fölött, hogy megjelenjen az állomás neve.

Azután kattintson az időjárási megfigyelések és előrejelzések megtekintéséhez.

A térkép megváltoztatása: kattintson a fekete keresztel jelölt zöld gombra ráközelítéshez, a vonallal jelölt zöld gombra távolításhoz, vagy a zöld nyilakra a szomszédos térképek eléréséhez.


METAR-TAF: